Tucson/Davis-Monthan AFB, Arizona
Current Conditions -  °F | °C
As of 12:58 PM on Sunday 23 Nov 2014 (Local Time) from KDMA Reporting Station
Clear Clear  
Wind Chill: 65°   Ceiling: Unl
Heat Index: 65°   Visibility: 10mi
Dew Point: 30°   Wind: 15mph
Humidity: 28%   Direction: 320°NW
Pressure: 30.03"   Gusts: 23mph
Location:  32.16°N, 110.88°W
Report Text: KDMA 231958Z AUTO 32013G20KT 10SM CLR 18/M01 A3003 RMK AO2 SLP151 T01811010 $
Loading
Personal Weather Stations






























Interactive Weather Map New forecast layout! Learn more

10-Day Weather Forecast

Advertisements
Track Severe Weather on mobile